Time;durP1;ratioP1;P1;durP2;ratioP2;P2;SDS_P1;SDS_P2;PMS_P1;PMS_P2;Temp;Humidity;BMP_temperature;BMP_pressure;BME280_temperature;BME280_humidity;BME280_pressure;Samples;Min_cycle;Max_cycle;Signal;HPM_P1;HPM_P2
2024/02/27 00:00:10;;;;;;;11.40;7.80;;;;;;;10.28;62.65;93324.81;521383;28;801;-69
2024/02/27 00:00:26;;;;;;;11.77;7.72;;;;;;;10.29;62.54;93334.56;521576;28;933;-69
2024/02/27 00:00:41;;;;;;;11.20;7.63;;;;;;;10.30;62.62;93338.81;521466;28;822;-69
2024/02/27 00:00:57;;;;;;;10.70;7.88;;;;;;;10.31;62.42;93331.28;521517;28;856;-69
2024/02/27 00:01:12;;;;;;;10.37;7.43;;;;;;;10.32;62.33;93330.72;521530;28;868;-69
2024/02/27 00:01:27;;;;;;;11.87;7.70;;;;;;;10.33;62.73;93328.69;521505;28;875;-69
2024/02/27 00:01:43;;;;;;;11.88;7.97;;;;;;;10.34;62.40;93336.41;521583;28;809;-69
2024/02/27 00:01:59;;;;;;;9.73;7.30;;;;;;;10.34;61.95;93333.66;521546;28;832;-69
2024/02/27 00:02:15;;;;;;;9.63;7.45;;;;;;;10.33;62.50;93329.41;521409;28;853;-69
2024/02/27 00:02:31;;;;;;;9.97;7.60;;;;;;;10.32;62.59;93330.72;521520;28;864;-69
2024/02/27 00:02:46;;;;;;;9.50;7.60;;;;;;;10.32;62.30;93330.72;521552;28;798;-69
2024/02/27 00:03:02;;;;;;;10.13;8.20;;;;;;;10.31;62.33;93334.75;521440;28;1087;-69
2024/02/27 00:03:17;;;;;;;10.48;8.27;;;;;;;10.31;62.37;93326.47;521454;28;1969;-69
2024/02/27 00:03:32;;;;;;;12.33;8.57;;;;;;;10.31;62.42;93332.00;521424;28;838;-69
2024/02/27 00:03:48;;;;;;;12.48;8.40;;;;;;;10.32;62.40;93330.72;521285;28;790;-69
2024/02/27 00:04:04;;;;;;;10.53;8.00;;;;;;;10.34;62.70;93332.91;521465;28;840;-69
2024/02/27 00:04:19;;;;;;;10.02;7.80;;;;;;;10.34;62.44;93333.66;521365;28;864;-69
2024/02/27 00:04:35;;;;;;;9.82;7.90;;;;;;;10.33;62.67;93337.69;521375;28;838;-69
2024/02/27 00:04:50;;;;;;;9.63;7.97;;;;;;;10.33;62.48;93331.47;519239;28;868;-69
2024/02/27 00:05:06;;;;;;;9.27;7.18;;;;;;;10.31;62.81;93337.50;519279;28;801;-69
2024/02/27 00:05:22;;;;;;;9.02;6.60;;;;;;;10.30;62.82;93338.81;519319;28;778;-69
2024/02/27 00:05:37;;;;;;;11.37;7.00;;;;;;;10.29;62.81;93337.31;519357;28;833;-69
2024/02/27 00:05:53;;;;;;;10.10;6.60;;;;;;;10.29;63.04;93340.09;519319;28;782;-69
2024/02/27 00:06:08;;;;;;;8.90;6.78;;;;;;;10.30;63.02;93335.31;519349;28;971;-69
2024/02/27 00:06:24;;;;;;;11.67;8.67;;;;;;;10.30;63.01;93333.28;519269;28;789;-69
2024/02/27 00:06:40;;;;;;;12.90;9.73;;;;;;;10.31;63.11;93337.50;519806;28;787;-70
2024/02/27 00:06:55;;;;;;;10.63;8.50;;;;;;;10.31;62.65;93332.00;521532;28;897;-69
2024/02/27 00:07:11;;;;;;;7.57;6.55;;;;;;;10.32;62.77;93336.25;521480;28;813;-69
2024/02/27 00:07:27;;;;;;;8.77;6.32;;;;;;;10.32;62.51;93330.72;521551;28;896;-69
2024/02/27 00:07:42;;;;;;;10.07;6.70;;;;;;;10.33;62.39;93332.19;521503;28;789;-69
2024/02/27 00:07:58;;;;;;;9.88;6.53;;;;;;;10.34;62.19;93333.66;521426;28;928;-69
2024/02/27 00:08:13;;;;;;;9.33;6.50;;;;;;;10.34;62.13;93333.66;521579;28;841;-69
2024/02/27 00:08:29;;;;;;;7.97;6.43;;;;;;;10.36;62.18;93336.59;521504;28;859;-69
2024/02/27 00:08:44;;;;;;;7.75;6.32;;;;;;;10.34;61.90;93336.41;521520;28;766;-69
2024/02/27 00:09:00;;;;;;;6.50;5.70;;;;;;;10.36;62.31;93333.09;521447;28;810;-69
2024/02/27 00:09:18;;;;;;;5.82;5.18;;;;;;;10.35;62.05;93337.88;521518;28;770;-69
2024/02/27 00:09:33;;;;;;;6.18;5.50;;;;;;;10.37;62.12;93331.84;521480;28;885;-69
2024/02/27 00:09:49;;;;;;;6.40;5.70;;;;;;;10.37;62.33;93337.34;521475;28;790;-69
2024/02/27 00:10:05;;;;;;;6.27;5.50;;;;;;;10.37;62.35;93335.31;521576;28;833;-69
2024/02/27 00:10:21;;;;;;;6.40;5.57;;;;;;;10.39;62.35;93337.53;521488;28;900;-69
2024/02/27 00:10:36;;;;;;;7.18;5.88;;;;;;;10.38;62.29;93333.28;521543;28;829;-69
2024/02/27 00:10:51;;;;;;;6.93;5.83;;;;;;;10.36;62.44;93333.09;521470;28;848;-69
2024/02/27 00:11:07;;;;;;;6.73;5.30;;;;;;;10.35;62.17;93343.41;521560;28;813;-69
2024/02/27 00:11:23;;;;;;;6.53;5.07;;;;;;;10.34;62.72;93338.44;521537;28;904;-69
2024/02/27 00:11:38;;;;;;;7.63;5.53;;;;;;;10.32;62.89;93333.47;521580;28;878;-69
2024/02/27 00:11:54;;;;;;;8.15;5.50;;;;;;;10.10;62.89;93303.06;521471;28;888;-69
2024/02/27 00:12:10;;;;;;;6.72;5.35;;;;;;;10.28;62.87;93332.38;521508;28;916;-69
2024/02/27 00:12:25;;;;;;;6.55;5.22;;;;;;;10.22;63.11;93332.53;521550;28;833;-69
2024/02/27 00:12:41;;;;;;;7.53;6.07;;;;;;;10.18;63.25;93334.91;521459;28;824;-69
2024/02/27 00:12:57;;;;;;;8.13;6.75;;;;;;;10.16;63.29;93343.00;521505;28;782;-69
2024/02/27 00:13:12;;;;;;;12.43;10.70;;;;;;;10.13;63.34;93335.84;521433;28;777;-69
2024/02/27 00:13:28;;;;;;;18.02;14.90;;;;;;;10.13;63.03;93338.59;521503;28;865;-69
2024/02/27 00:13:43;;;;;;;16.13;13.00;;;;;;;10.13;63.05;93335.84;521546;28;927;-69
2024/02/27 00:13:58;;;;;;;11.68;9.57;;;;;;;10.15;63.23;93338.03;521517;28;821;-69
2024/02/27 00:14:14;;;;;;;10.30;8.50;;;;;;;10.13;63.14;93327.56;521544;28;794;-69
2024/02/27 00:14:30;;;;;;;10.50;8.30;;;;;;;10.13;63.26;93330.31;521464;28;833;-69
2024/02/27 00:14:45;;;;;;;10.40;7.47;;;;;;;10.13;63.55;93335.09;521443;28;817;-69
2024/02/27 00:15:01;;;;;;;10.57;7.00;;;;;;;10.13;63.44;93335.09;521511;28;813;-69
2024/02/27 00:15:16;;;;;;;9.97;6.50;;;;;;;10.12;63.30;93334.34;521436;28;845;-69
2024/02/27 00:15:31;;;;;;;7.80;6.30;;;;;;;10.12;63.56;93337.09;521505;28;826;-69
2024/02/27 00:15:48;;;;;;;8.80;6.80;;;;;;;10.13;63.27;93330.31;521522;28;797;-69
2024/02/27 00:16:04;;;;;;;9.65;7.15;;;;;;;9.91;63.05;93298.63;521471;28;857;-69
2024/02/27 00:16:20;;;;;;;9.02;7.22;;;;;;;10.15;63.22;93330.50;521441;28;788;-69
2024/02/27 00:16:36;;;;;;;8.77;7.50;;;;;;;10.17;63.37;93327.94;521512;28;813;-69
2024/02/27 00:16:51;;;;;;;9.15;7.55;;;;;;;10.16;63.04;93331.22;521498;28;805;-69
2024/02/27 00:17:07;;;;;;;10.17;7.37;;;;;;;10.13;63.78;93335.09;521499;28;809;-69
2024/02/27 00:17:22;;;;;;;9.32;7.22;;;;;;;10.09;64.05;93335.41;521460;28;837;-69
2024/02/27 00:17:38;;;;;;;9.23;6.87;;;;;;;10.07;63.91;93334.50;521505;28;856;-69
2024/02/27 00:17:53;;;;;;;10.32;6.68;;;;;;;10.07;63.80;93337.25;521516;28;1545;-69
2024/02/27 00:18:13;;;;;;;11.40;8.20;;;;;;;10.07;64.01;93335.22;521506;28;797;-69
2024/02/27 00:18:28;;;;;;;19.38;14.13;;;;;;;10.06;63.57;93328.25;521503;28;841;-69
2024/02/27 00:18:44;;;;;;;27.10;19.77;;;;;;;10.05;63.70;93334.31;521444;28;860;-69
2024/02/27 00:19:00;;;;;;;24.63;17.35;;;;;;;10.03;63.52;93332.09;521544;28;975;-69
2024/02/27 00:19:15;;;;;;;15.68;11.43;;;;;;;10.00;63.15;93326.94;521310;28;904;-69
2024/02/27 00:19:31;;;;;;;12.43;8.97;;;;;;;9.81;63.19;93302.44;521285;28;813;-69
2024/02/27 00:19:46;;;;;;;11.17;7.70;;;;;;;9.95;63.56;93336.84;521349;28;782;-69
2024/02/27 00:20:02;;;;;;;9.73;7.65;;;;;;;9.91;63.57;93330.97;521298;28;992;-69
2024/02/27 00:20:18;;;;;;;10.65;8.10;;;;;;;9.90;63.64;93332.97;521179;28;904;-69
2024/02/27 00:20:33;;;;;;;10.97;8.03;;;;;;;9.88;64.06;93332.06;521348;28;758;-69
2024/02/27 00:20:49;;;;;;;9.65;7.97;;;;;;;9.87;64.09;93336.81;521274;28;813;-69
2024/02/27 00:21:05;;;;;;;9.00;7.83;;;;;;;9.84;64.31;93337.19;521328;28;925;-69
2024/02/27 00:21:20;;;;;;;9.38;7.63;;;;;;;9.84;64.65;93335.19;521383;28;829;-69
2024/02/27 00:21:35;;;;;;;9.52;7.60;;;;;;;9.84;64.49;93331.69;521245;28;829;-69
2024/02/27 00:21:52;;;;;;;8.80;7.30;;;;;;;9.86;64.33;93334.63;521264;28;912;-69
2024/02/27 00:22:07;;;;;;;8.57;7.40;;;;;;;9.85;64.13;93330.41;521283;28;837;-69
2024/02/27 00:22:22;;;;;;;9.13;7.67;;;;;;;9.85;64.26;93330.41;521323;28;905;-69
2024/02/27 00:22:38;;;;;;;8.68;7.28;;;;;;;9.85;64.40;93333.88;521323;28;825;-69
2024/02/27 00:22:54;;;;;;;7.72;6.90;;;;;;;9.87;64.30;93327.84;521234;28;940;-69
2024/02/27 00:23:09;;;;;;;7.63;6.83;;;;;;;9.89;64.02;93333.53;521325;28;813;-69
2024/02/27 00:23:25;;;;;;;7.97;6.90;;;;;;;9.89;63.91;93328.75;521267;28;1913;-69
2024/02/27 00:23:41;;;;;;;8.07;7.22;;;;;;;9.92;63.91;93338.69;521281;28;852;-69
2024/02/27 00:23:56;;;;;;;8.77;7.23;;;;;;;9.94;64.13;93329.84;521301;28;821;-69
2024/02/27 00:24:12;;;;;;;9.27;7.20;;;;;;;9.96;63.72;93337.59;521306;28;865;-69
2024/02/27 00:24:27;;;;;;;7.97;6.90;;;;;;;9.97;63.80;93331.53;521238;28;903;-69
2024/02/27 00:24:43;;;;;;;7.63;6.53;;;;;;;9.98;63.72;93335.78;521297;28;843;-69
2024/02/27 00:24:58;;;;;;;8.77;6.90;;;;;;;10.00;64.03;93332.47;521343;28;821;-69
2024/02/27 00:25:14;;;;;;;9.67;7.17;;;;;;;10.01;64.02;93333.91;521401;28;797;-69
2024/02/27 00:25:29;;;;;;;8.40;6.90;;;;;;;10.02;64.05;93327.88;521106;28;885;-69
2024/02/27 00:25:45;;;;;;;8.00;6.83;;;;;;;10.05;63.86;93331.56;521230;28;859;-69
2024/02/27 00:26:00;;;;;;;7.95;7.00;;;;;;;10.05;63.85;93329.53;521306;28;757;-69
2024/02/27 00:26:15;;;;;;;8.63;7.37;;;;;;;10.07;63.76;93326.94;521347;28;802;-69
2024/02/27 00:26:31;;;;;;;9.90;7.10;;;;;;;9.92;63.68;93310.38;521308;28;832;-69
2024/02/27 00:26:47;;;;;;;9.03;6.67;;;;;;;10.09;64.02;93331.94;521385;28;1101;-69
2024/02/27 00:27:03;;;;;;;9.30;7.20;;;;;;;10.10;63.97;93336.91;521252;28;806;-69
2024/02/27 00:27:19;;;;;;;10.05;7.75;;;;;;;10.12;63.84;93328.09;521287;28;825;-69
2024/02/27 00:27:34;;;;;;;9.55;7.38;;;;;;;10.13;63.81;93329.56;521325;28;858;-69
2024/02/27 00:27:50;;;;;;;10.15;7.68;;;;;;;10.13;63.34;93330.31;521156;28;758;-69
2024/02/27 00:28:05;;;;;;;10.63;7.63;;;;;;;10.14;63.31;93329.03;521009;28;1098;-69
2024/02/27 00:28:21;;;;;;;10.27;7.00;;;;;;;10.15;63.39;93327.75;521307;28;877;-69
2024/02/27 00:28:36;;;;;;;8.57;6.55;;;;;;;10.16;63.26;93334.72;521355;28;778;-69
2024/02/27 00:28:51;;;;;;;7.93;6.33;;;;;;;10.17;63.30;93327.19;521283;28;873;-69
2024/02/27 00:29:07;;;;;;;9.10;6.78;;;;;;;10.17;63.19;93325.19;521290;28;918;-69
2024/02/27 00:29:22;;;;;;;8.50;6.60;;;;;;;10.19;63.48;93335.66;521339;28;856;-69
2024/02/27 00:29:38;;;;;;;6.57;5.93;;;;;;;10.20;63.44;93329.56;521348;28;848;-70
2024/02/27 00:29:54;;;;;;;6.57;5.90;;;;;;;10.21;63.61;93327.56;521252;28;829;-69
2024/02/27 00:30:09;;;;;;;7.63;6.47;;;;;;;10.21;63.78;93336.59;521318;28;789;-69
2024/02/27 00:30:25;;;;;;;9.77;6.65;;;;;;;10.21;63.62;93331.06;521180;28;897;-69
2024/02/27 00:30:40;;;;;;;9.57;6.43;;;;;;;10.22;63.72;93331.81;521368;28;750;-69
2024/02/27 00:30:56;;;;;;;7.33;6.43;;;;;;;10.22;63.57;93329.06;521361;28;858;-69
2024/02/27 00:31:11;;;;;;;8.60;6.55;;;;;;;10.22;63.45;93329.06;521246;28;896;-69
2024/02/27 00:31:27;;;;;;;9.00;6.47;;;;;;;10.23;63.69;93327.75;521269;28;821;-69
2024/02/27 00:31:42;;;;;;;8.02;6.30;;;;;;;10.22;63.23;93327.00;521358;28;789;-69
2024/02/27 00:31:58;;;;;;;7.50;6.20;;;;;;;10.24;63.22;93334.75;521279;28;881;-69
2024/02/27 00:32:13;;;;;;;7.53;6.10;;;;;;;10.25;62.96;93333.44;521384;28;822;-69
2024/02/27 00:32:29;;;;;;;7.93;5.97;;;;;;;10.23;63.16;93333.25;521264;28;934;-69
2024/02/27 00:32:44;;;;;;;7.90;5.85;;;;;;;10.25;63.15;93327.94;521266;28;809;-70
2024/02/27 00:32:59;;;;;;;7.83;6.33;;;;;;;10.25;62.97;93331.44;521080;28;1189;-69
2024/02/27 00:33:15;;;;;;;6.87;6.10;;;;;;;10.25;63.34;93322.41;521213;28;877;-69
2024/02/27 00:33:30;;;;;;;6.57;5.80;;;;;;;10.25;63.07;93320.41;521090;28;830;-69
2024/02/27 00:33:46;;;;;;;7.17;6.07;;;;;;;10.26;63.32;93329.41;521186;28;836;-69
2024/02/27 00:34:01;;;;;;;7.50;5.88;;;;;;;10.27;63.21;93331.63;521089;28;778;-69
2024/02/27 00:34:17;;;;;;;7.80;6.27;;;;;;;10.27;63.14;93326.09;521236;28;794;-69
2024/02/27 00:34:32;;;;;;;8.68;6.53;;;;;;;10.27;63.10;93323.34;521225;28;908;-69
2024/02/27 00:34:49;;;;;;;8.77;6.50;;;;;;;10.27;63.19;93323.34;521324;28;832;-69
2024/02/27 00:35:04;;;;;;;7.47;6.32;;;;;;;10.27;63.52;93325.34;521544;28;822;-69
2024/02/27 00:35:20;;;;;;;9.30;6.77;;;;;;;10.27;63.32;93323.34;521393;28;830;-69
2024/02/27 00:35:35;;;;;;;9.77;6.80;;;;;;;10.28;63.41;93321.31;521481;28;849;-69
2024/02/27 00:35:51;;;;;;;8.17;6.60;;;;;;;10.24;63.08;93329.97;521456;28;1109;-69
2024/02/27 00:36:08;;;;;;;7.00;6.25;;;;;;;10.21;63.31;93325.53;521552;28;798;-69
2024/02/27 00:36:23;;;;;;;6.85;6.15;;;;;;;10.21;63.28;93319.28;521487;28;825;-69
2024/02/27 00:36:38;;;;;;;8.00;6.43;;;;;;;10.19;62.96;93322.59;521486;28;861;-69
2024/02/27 00:36:54;;;;;;;9.40;6.43;;;;;;;10.20;63.22;93329.56;521416;28;773;-69
2024/02/27 00:37:09;;;;;;;9.48;6.68;;;;;;;10.20;63.30;93324.06;521495;28;1089;-69
2024/02/27 00:37:25;;;;;;;7.83;6.57;;;;;;;10.20;63.46;93320.59;521490;28;857;-69
2024/02/27 00:37:40;;;;;;;7.03;6.25;;;;;;;10.21;63.48;93325.53;521470;28;861;-69
2024/02/27 00:37:56;;;;;;;6.50;5.87;;;;;;;10.09;63.32;93307.09;521504;28;861;-69
2024/02/27 00:38:12;;;;;;;6.28;5.68;;;;;;;10.22;63.03;93332.53;521457;28;860;-69
2024/02/27 00:38:27;;;;;;;6.67;5.87;;;;;;;10.22;63.34;93327.00;521434;28;950;-69
2024/02/27 00:38:43;;;;;;;8.00;5.68;;;;;;;10.22;63.40;93327.00;521506;28;903;-69
2024/02/27 00:38:58;;;;;;;7.80;5.73;;;;;;;10.21;63.15;93322.78;521413;28;857;-69
2024/02/27 00:39:13;;;;;;;6.70;5.80;;;;;;;10.19;63.13;93325.34;521483;28;802;-69
2024/02/27 00:39:29;;;;;;;7.60;5.63;;;;;;;10.18;63.12;93323.88;521342;28;931;-69
2024/02/27 00:39:44;;;;;;;8.20;5.90;;;;;;;10.19;63.43;93322.59;521527;28;1081;-69
2024/02/27 00:40:00;;;;;;;7.20;5.82;;;;;;;10.18;63.15;93326.63;521453;28;940;-69
2024/02/27 00:40:15;;;;;;;6.77;5.30;;;;;;;9.93;63.22;93287.03;521552;28;747;-69
2024/02/27 00:40:31;;;;;;;6.63;5.68;;;;;;;10.19;63.41;93327.38;521332;28;860;-69
2024/02/27 00:40:46;;;;;;;7.70;6.47;;;;;;;10.20;62.92;93328.88;521486;28;790;-69
2024/02/27 00:41:03;;;;;;;7.70;6.28;;;;;;;10.19;63.56;93327.38;521397;28;877;-69
2024/02/27 00:41:18;;;;;;;6.15;5.50;;;;;;;10.19;63.38;93324.63;521443;28;833;-69
2024/02/27 00:41:40;;;;;;;6.35;5.35;;;;;;;10.05;63.36;93301.94;521498;28;1022;-69
2024/02/27 00:41:57;;;;;;;8.00;5.90;;;;;;;10.21;63.83;93330.31;521436;28;981;-69
2024/02/27 00:42:12;;;;;;;8.30;6.07;;;;;;;10.21;63.82;93328.31;521443;28;833;-69
2024/02/27 00:42:28;;;;;;;7.13;5.95;;;;;;;10.24;63.51;93318.19;521399;28;865;-69
2024/02/27 00:42:44;;;;;;;6.65;5.68;;;;;;;10.23;63.94;93327.75;521639;28;867;-69
2024/02/27 00:43:00;;;;;;;6.55;5.82;;;;;;;10.04;63.55;93300.47;521497;28;785;-69
2024/02/27 00:43:16;;;;;;;6.75;5.80;;;;;;;10.25;63.84;93319.66;521443;28;1914;-69
2024/02/27 00:43:31;;;;;;;6.90;5.80;;;;;;;10.26;63.54;93329.41;521384;28;857;-69
2024/02/27 00:43:47;;;;;;;7.85;5.88;;;;;;;10.24;63.50;93321.69;521422;28;918;-69
2024/02/27 00:44:02;;;;;;;8.00;5.83;;;;;;;10.24;63.39;93332.00;521434;28;762;-69
2024/02/27 00:44:18;;;;;;;7.50;5.55;;;;;;;10.26;63.66;93319.13;520669;28;1665;-69
2024/02/27 00:44:33;;;;;;;7.93;5.87;;;;;;;10.23;63.41;93327.75;519427;28;778;-69
2024/02/27 00:44:49;;;;;;;8.95;6.53;;;;;;;10.11;63.59;93310.09;519419;28;837;-69
2024/02/27 00:45:05;;;;;;;8.30;6.10;;;;;;;10.23;63.41;93320.22;519424;28;1128;-69
2024/02/27 00:45:20;;;;;;;6.78;5.45;;;;;;;10.23;63.42;93327.75;519391;28;1705;-69
2024/02/27 00:45:36;;;;;;;6.60;5.63;;;;;;;10.24;63.28;93321.69;519383;28;810;-69
2024/02/27 00:45:51;;;;;;;7.37;6.10;;;;;;;10.14;63.24;93303.44;517089;28;1298;-69
2024/02/27 00:46:07;;;;;;;8.38;6.15;;;;;;;10.25;63.36;93320.41;517318;28;790;-69
2024/02/27 00:46:22;;;;;;;8.07;5.73;;;;;;;10.26;63.54;93321.16;517191;28;774;-69
2024/02/27 00:46:38;;;;;;;6.53;5.22;;;;;;;10.27;63.19;93314.31;517204;28;865;-69
2024/02/27 00:46:53;;;;;;;5.77;5.07;;;;;;;10.28;63.53;93322.06;517223;28;834;-69
2024/02/27 00:47:08;;;;;;;6.00;5.40;;;;;;;10.29;63.26;93318.00;517507;28;1303;-69
2024/02/27 00:47:24;;;;;;;6.18;5.47;;;;;;;10.30;63.03;93322.25;519277;28;947;-69
2024/02/27 00:47:39;;;;;;;6.50;5.50;;;;;;;10.30;63.36;93313.97;519619;28;837;-69
2024/02/27 00:47:57;;;;;;;6.15;5.50;;;;;;;10.31;63.12;93320.25;521410;28;797;-69
2024/02/27 00:48:12;;;;;;;6.10;5.50;;;;;;;10.33;63.49;93325.94;521457;28;904;-69
2024/02/27 00:48:27;;;;;;;6.27;5.57;;;;;;;10.33;63.35;93320.41;521541;28;881;-69
2024/02/27 00:48:43;;;;;;;6.55;5.60;;;;;;;10.33;63.53;93323.91;521342;28;1366;-69
2024/02/27 00:48:58;;;;;;;7.43;5.60;;;;;;;10.35;63.51;93320.59;521461;28;841;-69
2024/02/27 00:49:14;;;;;;;8.70;6.00;;;;;;;10.34;63.28;93328.16;521369;28;853;-69
2024/02/27 00:49:29;;;;;;;7.53;5.68;;;;;;;10.35;63.65;93320.59;521450;28;793;-69
2024/02/27 00:49:45;;;;;;;5.95;5.35;;;;;;;10.35;63.45;93329.59;521454;28;825;-69
2024/02/27 00:50:00;;;;;;;6.60;5.83;;;;;;;10.36;63.72;93319.31;521478;28;865;-69
2024/02/27 00:50:16;;;;;;;6.93;5.63;;;;;;;10.36;63.54;93322.06;521532;28;810;-70
2024/02/27 00:50:31;;;;;;;6.75;5.43;;;;;;;10.36;63.72;93327.59;521414;28;782;-69
2024/02/27 00:50:47;;;;;;;7.33;5.63;;;;;;;10.36;63.71;93320.03;521361;28;853;-69
2024/02/27 00:51:02;;;;;;;6.88;5.55;;;;;;;10.36;63.71;93322.81;521505;28;813;-69
2024/02/27 00:51:18;;;;;;;5.75;5.00;;;;;;;10.36;64.09;93325.56;521460;28;786;-69
2024/02/27 00:51:33;;;;;;;5.70;4.83;;;;;;;10.20;64.08;93301.28;521389;28;862;-69
2024/02/27 00:51:49;;;;;;;7.53;5.45;;;;;;;10.32;64.03;93319.69;521397;28;858;-69
2024/02/27 00:52:06;;;;;;;7.10;5.60;;;;;;;10.38;63.86;93323.00;521461;28;893;-69
2024/02/27 00:52:21;;;;;;;7.10;5.70;;;;;;;10.39;63.84;93329.25;521426;28;1113;-69
2024/02/27 00:52:37;;;;;;;7.50;5.93;;;;;;;10.38;63.87;93328.50;521481;28;864;-69
2024/02/27 00:52:52;;;;;;;7.27;5.73;;;;;;;10.39;63.86;93324.47;521448;28;817;-69
2024/02/27 00:53:08;;;;;;;7.70;5.75;;;;;;;10.39;63.97;93326.50;521426;28;925;-69
2024/02/27 00:53:23;;;;;;;9.47;5.77;;;;;;;10.39;64.56;93324.47;521491;28;815;-69
2024/02/27 00:53:39;;;;;;;9.17;5.50;;;;;;;10.37;64.28;93321.50;521479;28;861;-69
2024/02/27 00:53:55;;;;;;;6.25;5.40;;;;;;;10.30;64.49;93313.22;521473;28;857;-69
2024/02/27 00:54:10;;;;;;;8.57;5.90;;;;;;;10.26;64.54;93302.56;521447;28;912;-69
2024/02/27 00:54:26;;;;;;;11.30;6.40;;;;;;;10.41;64.13;93327.41;521556;28;872;-69
2024/02/27 00:54:41;;;;;;;8.90;6.28;;;;;;;10.41;64.12;93319.16;521464;28;868;-69
2024/02/27 00:54:57;;;;;;;7.10;6.23;;;;;;;10.41;64.13;93321.91;521439;28;873;-69
2024/02/27 00:55:12;;;;;;;7.60;6.15;;;;;;;10.43;64.11;93332.38;521447;28;777;-69
2024/02/27 00:55:28;;;;;;;8.37;6.23;;;;;;;10.42;64.21;93322.63;521489;28;876;-69
2024/02/27 00:55:43;;;;;;;7.90;6.40;;;;;;;10.42;63.96;93325.38;521427;28;1163;-69
2024/02/27 00:55:59;;;;;;;7.00;6.10;;;;;;;10.42;64.20;93325.38;521448;28;782;-69
2024/02/27 00:56:14;;;;;;;8.27;6.32;;;;;;;10.43;63.73;93324.09;521347;28;794;-69
2024/02/27 00:56:30;;;;;;;8.50;6.87;;;;;;;10.43;63.69;93322.09;521449;28;852;-69
2024/02/27 00:56:45;;;;;;;9.33;6.80;;;;;;;10.44;63.95;93322.81;521440;28;900;-69
2024/02/27 00:57:00;;;;;;;10.20;6.95;;;;;;;10.44;63.97;93326.31;521430;28;920;-69
2024/02/27 00:57:16;;;;;;;10.40;7.33;;;;;;;10.44;63.95;93331.09;521531;28;1026;-69
2024/02/27 00:57:31;;;;;;;10.18;7.43;;;;;;;10.44;63.75;93326.31;521310;28;788;-69
2024/02/27 00:57:47;;;;;;;9.63;7.20;;;;;;;10.43;63.68;93318.59;521531;28;857;-69
2024/02/27 00:58:02;;;;;;;10.80;7.13;;;;;;;10.42;63.47;93325.38;521402;28;908;-69
2024/02/27 00:58:18;;;;;;;9.60;7.30;;;;;;;10.43;63.50;93329.63;521503;28;814;-69
2024/02/27 00:58:34;;;;;;;8.68;7.25;;;;;;;10.41;63.35;93326.69;521435;28;940;-69
2024/02/27 00:58:50;;;;;;;9.45;7.72;;;;;;;10.40;63.36;93320.41;521449;28;809;-69
2024/02/27 00:59:05;;;;;;;9.43;7.75;;;;;;;10.39;63.29;93321.72;521377;28;817;-69
2024/02/27 00:59:21;;;;;;;10.37;7.70;;;;;;;10.39;63.47;93330.00;521490;28;813;-69
2024/02/27 00:59:36;;;;;;;10.98;7.60;;;;;;;10.37;63.64;93332.53;521451;28;834;-69
2024/02/27 00:59:52;;;;;;;10.40;7.60;;;;;;;10.36;63.60;93331.09;521452;28;849;-69
2024/02/27 01:00:08;;;;;;;11.33;7.90;;;;;;;10.29;63.82;93329.03;521504;28;871;-69
2024/02/27 01:00:24;;;;;;;11.65;7.53;;;;;;;10.27;63.81;93331.63;521508;28;904;-69
2024/02/27 01:00:39;;;;;;;10.55;7.18;;;;;;;10.27;63.65;93322.59;521437;28;806;-69
2024/02/27 01:00:55;;;;;;;9.97;6.90;;;;;;;10.25;63.71;93330.69;521414;28;845;-69
2024/02/27 01:01:10;;;;;;;10.40;7.07;;;;;;;10.24;63.54;93334.75;521483;28;774;-69
2024/02/27 01:01:26;;;;;;;12.37;7.80;;;;;;;10.23;63.55;93328.50;521515;28;1004;-69
2024/02/27 01:01:41;;;;;;;11.40;7.78;;;;;;;10.21;63.46;93328.31;521332;28;814;-69
2024/02/27 01:01:57;;;;;;;9.27;7.20;;;;;;;10.23;63.83;93328.50;521484;28;797;-69
2024/02/27 01:02:12;;;;;;;10.10;7.47;;;;;;;10.22;63.83;93335.28;521470;28;869;-69
2024/02/27 01:02:28;;;;;;;10.95;7.82;;;;;;;10.22;63.89;93327.00;521428;28;1034;-69
2024/02/27 01:02:43;;;;;;;9.37;7.57;;;;;;;10.23;63.86;93334.00;521504;28;829;-69
2024/02/27 01:02:58;;;;;;;9.18;7.90;;;;;;;10.21;63.64;93330.31;521474;28;861;-69
2024/02/27 01:03:17;;;;;;;10.53;8.43;;;;;;;10.19;63.59;93333.63;521421;28;936;-69
2024/02/27 01:03:32;;;;;;;12.20;8.55;;;;;;;10.16;63.83;93329.22;521377;28;971;-69
2024/02/27 01:03:48;;;;;;;10.67;7.73;;;;;;;10.15;64.00;93333.25;521482;28;821;-69
2024/02/27 01:04:04;;;;;;;10.07;7.78;;;;;;;10.14;64.07;93329.03;521503;28;794;-69
2024/02/27 01:04:19;;;;;;;11.17;8.57;;;;;;;10.13;64.08;93333.09;521418;28;1108;-69
2024/02/27 01:04:34;;;;;;;10.45;8.18;;;;;;;10.14;63.78;93331.03;521452;28;838;-69
2024/02/27 01:04:50;;;;;;;11.20;7.97;;;;;;;10.11;64.03;93329.41;521438;28;893;-69
2024/02/27 01:05:06;;;;;;;11.47;8.37;;;;;;;10.07;63.95;93332.47;521504;28;841;-69
2024/02/27 01:05:22;;;;;;;10.75;8.45;;;;;;;10.04;64.28;93336.34;521378;28;1144;-69
2024/02/27 01:05:38;;;;;;;10.00;8.13;;;;;;;10.03;64.35;93332.09;521629;28;801;-69
2024/02/27 01:05:53;;;;;;;9.93;7.80;;;;;;;10.02;64.24;93329.88;521326;28;777;-69
2024/02/27 01:06:08;;;;;;;10.32;8.23;;;;;;;10.00;64.43;93332.47;521462;28;817;-69
2024/02/27 01:06:24;;;;;;;11.07;9.43;;;;;;;9.98;64.78;93335.03;521525;28;802;-69
2024/02/27 01:06:39;;;;;;;11.40;9.37;;;;;;;9.96;64.89;93334.84;521458;28;801;-69
2024/02/27 01:06:55;;;;;;;10.77;8.88;;;;;;;9.92;64.65;93327.66;521434;28;869;-69
2024/02/27 01:07:10;;;;;;;11.00;8.93;;;;;;;9.90;64.83;93329.47;521442;28;766;-69
2024/02/27 01:07:26;;;;;;;11.57;9.15;;;;;;;9.87;65.01;93325.78;521523;28;928;-69
2024/02/27 01:07:42;;;;;;;12.17;8.90;;;;;;;9.84;64.94;93326.91;521357;28;869;-69
2024/02/27 01:07:57;;;;;;;12.63;8.40;;;;;;;9.84;65.36;93328.91;521361;28;901;-69
2024/02/27 01:08:13;;;;;;;13.50;8.77;;;;;;;9.59;65.23;93292.81;521512;28;806;-69
2024/02/27 01:08:28;;;;;;;12.80;8.50;;;;;;;9.82;65.43;93326.72;521390;28;1158;-69
2024/02/27 01:08:44;;;;;;;11.38;8.75;;;;;;;9.85;65.14;93330.41;521403;28;1092;-69
2024/02/27 01:08:59;;;;;;;11.63;8.90;;;;;;;9.86;65.23;93329.09;521438;28;797;-69
2024/02/27 01:09:15;;;;;;;10.77;8.43;;;;;;;9.87;65.11;93330.59;521439;28;778;-69
2024/02/27 01:09:33;;;;;;;11.93;9.07;;;;;;;9.88;65.11;93332.78;521411;28;837;-69
2024/02/27 01:09:48;;;;;;;12.77;9.02;;;;;;;9.90;65.24;93332.25;521422;28;880;-69
2024/02/27 01:10:04;;;;;;;11.90;8.82;;;;;;;9.87;65.08;93319.56;521449;28;873;-69
2024/02/27 01:10:20;;;;;;;10.48;8.68;;;;;;;9.92;65.03;93332.44;521481;28;924;-69
2024/02/27 01:10:35;;;;;;;9.77;8.50;;;;;;;9.87;65.22;93331.31;521411;28;859;-69
2024/02/27 01:10:51;;;;;;;10.75;8.63;;;;;;;9.84;65.44;93326.91;521337;28;824;-69
2024/02/27 01:11:06;;;;;;;11.47;8.70;;;;;;;9.81;65.49;93333.50;521420;28;889;-69
2024/02/27 01:11:22;;;;;;;10.90;8.73;;;;;;;9.79;65.51;93330.56;521367;28;1101;-69
2024/02/27 01:11:37;;;;;;;11.35;9.23;;;;;;;9.77;65.79;93326.88;521543;28;1198;-69
2024/02/27 01:11:53;;;;;;;11.40;9.87;;;;;;;9.75;65.75;93327.41;521471;28;802;-69
2024/02/27 01:12:08;;;;;;;11.05;9.32;;;;;;;9.74;65.71;93331.47;521475;28;810;-69
2024/02/27 01:12:24;;;;;;;11.60;8.70;;;;;;;9.75;65.89;93334.94;521472;28;920;-68
2024/02/27 01:12:40;;;;;;;11.02;8.65;;;;;;;9.61;65.76;93312.31;521447;28;944;-68
2024/02/27 01:12:55;;;;;;;10.30;8.38;;;;;;;9.75;65.94;93330.19;521378;28;889;-68
2024/02/27 01:13:11;;;;;;;10.67;8.30;;;;;;;9.75;66.04;93334.94;521382;28;888;-68
2024/02/27 01:13:26;;;;;;;11.05;8.27;;;;;;;9.69;66.03;93328.88;521485;28;888;-68
2024/02/27 01:13:42;;;;;;;11.37;8.43;;;;;;;9.64;66.46;93330.50;521399;28;1027;-68
2024/02/27 01:13:57;;;;;;;9.98;8.38;;;;;;;9.64;66.24;93327.75;521459;28;908;-68
2024/02/27 01:14:13;;;;;;;10.00;8.80;;;;;;;9.43;65.98;93305.06;521391;28;1065;-68
2024/02/27 01:14:28;;;;;;;10.88;9.40;;;;;;;9.65;66.27;93331.97;521417;28;838;-68
2024/02/27 01:14:43;;;;;;;11.67;9.73;;;;;;;9.65;66.00;93337.50;521445;28;845;-69
2024/02/27 01:14:59;;;;;;;12.75;10.20;;;;;;;9.66;66.21;93327.94;521447;28;893;-68
2024/02/27 01:15:14;;;;;;;11.67;10.13;;;;;;;9.64;66.01;93336.00;521477;28;970;-69
2024/02/27 01:15:30;;;;;;;13.00;10.55;;;;;;;9.62;65.85;93329.56;521386;28;774;-69
2024/02/27 01:15:45;;;;;;;13.87;10.83;;;;;;;9.62;66.12;93333.06;521469;28;755;-69
2024/02/27 01:16:01;;;;;;;12.93;11.17;;;;;;;9.62;66.04;93330.31;521418;28;1106;-68